sensor_id;sensor_type;location;lat;lon;timestamp;P1;durP1;ratioP1;P2;durP2;ratioP2
3527;SDS011;1778;47.966;7.854;2022-12-16T00:01:06;21.38;;;12.15;;
3527;SDS011;1778;47.966;7.854;2022-12-16T00:02:10;34.25;;;12.20;;
3527;SDS011;1778;47.966;7.854;2022-12-16T00:03:12;29.17;;;11.57;;
3527;SDS011;1778;47.966;7.854;2022-12-16T00:04:13;19.83;;;11.95;;
3527;SDS011;1778;47.966;7.854;2022-12-16T00:05:18;21.70;;;10.65;;
3527;SDS011;1778;47.966;7.854;2022-12-16T00:06:24;15.10;;;10.52;;
3527;SDS011;1778;47.966;7.854;2022-12-16T00:07:29;17.83;;;12.27;;
3527;SDS011;1778;47.966;7.854;2022-12-16T00:08:31;21.17;;;11.88;;
3527;SDS011;1778;47.966;7.854;2022-12-16T00:09:34;16.70;;;9.68;;
3527;SDS011;1778;47.966;7.854;2022-12-16T00:10:36;35.80;;;12.70;;
3527;SDS011;1778;47.966;7.854;2022-12-16T00:11:54;20.35;;;10.88;;
3527;SDS011;1778;47.966;7.854;2022-12-16T00:12:56;32.65;;;12.45;;
3527;SDS011;1778;47.966;7.854;2022-12-16T00:13:57;21.77;;;13.25;;
3527;SDS011;1778;47.966;7.854;2022-12-16T00:14:59;24.65;;;13.10;;
3527;SDS011;1778;47.966;7.854;2022-12-16T00:16:04;16.17;;;11.60;;
3527;SDS011;1778;47.966;7.854;2022-12-16T00:17:10;19.98;;;11.07;;
3527;SDS011;1778;47.966;7.854;2022-12-16T00:18:12;20.92;;;12.25;;
3527;SDS011;1778;47.966;7.854;2022-12-16T00:19:14;13.80;;;9.90;;
3527;SDS011;1778;47.966;7.854;2022-12-16T00:20:15;22.63;;;11.82;;
3527;SDS011;1778;47.966;7.854;2022-12-16T00:21:17;15.93;;;10.05;;
3527;SDS011;1778;47.966;7.854;2022-12-16T00:22:19;16.13;;;10.25;;
3527;SDS011;1778;47.966;7.854;2022-12-16T00:23:21;25.70;;;12.00;;
3527;SDS011;1778;47.966;7.854;2022-12-16T00:24:22;16.85;;;10.10;;
3527;SDS011;1778;47.966;7.854;2022-12-16T00:25:24;15.73;;;10.13;;
3527;SDS011;1778;47.966;7.854;2022-12-16T00:26:26;18.48;;;12.40;;
3527;SDS011;1778;47.966;7.854;2022-12-16T00:27:29;15.45;;;10.55;;
3527;SDS011;1778;47.966;7.854;2022-12-16T00:28:31;16.80;;;10.07;;
3527;SDS011;1778;47.966;7.854;2022-12-16T00:29:32;31.27;;;12.20;;
3527;SDS011;1778;47.966;7.854;2022-12-16T00:30:34;17.90;;;12.15;;
3527;SDS011;1778;47.966;7.854;2022-12-16T00:31:36;17.98;;;10.65;;
3527;SDS011;1778;47.966;7.854;2022-12-16T00:32:38;26.73;;;13.77;;
3527;SDS011;1778;47.966;7.854;2022-12-16T00:33:39;22.73;;;13.13;;
3527;SDS011;1778;47.966;7.854;2022-12-16T00:34:41;22.50;;;11.90;;
3527;SDS011;1778;47.966;7.854;2022-12-16T00:35:43;13.25;;;9.75;;
3527;SDS011;1778;47.966;7.854;2022-12-16T00:36:46;22.38;;;12.20;;
3527;SDS011;1778;47.966;7.854;2022-12-16T00:37:47;21.25;;;12.45;;
3527;SDS011;1778;47.966;7.854;2022-12-16T00:38:51;18.25;;;11.38;;
3527;SDS011;1778;47.966;7.854;2022-12-16T00:39:54;14.85;;;10.15;;
3527;SDS011;1778;47.966;7.854;2022-12-16T00:40:55;18.67;;;9.40;;
3527;SDS011;1778;47.966;7.854;2022-12-16T00:41:57;16.05;;;10.70;;
3527;SDS011;1778;47.966;7.854;2022-12-16T00:42:58;18.83;;;10.95;;
3527;SDS011;1778;47.966;7.854;2022-12-16T00:44:00;16.10;;;11.05;;
3527;SDS011;1778;47.966;7.854;2022-12-16T00:45:02;26.45;;;13.70;;
3527;SDS011;1778;47.966;7.854;2022-12-16T00:46:04;18.80;;;11.60;;
3527;SDS011;1778;47.966;7.854;2022-12-16T00:47:06;19.85;;;11.77;;
3527;SDS011;1778;47.966;7.854;2022-12-16T00:48:08;16.90;;;11.57;;
3527;SDS011;1778;47.966;7.854;2022-12-16T00:49:10;20.73;;;10.90;;
3527;SDS011;1778;47.966;7.854;2022-12-16T00:50:11;22.85;;;10.65;;
3527;SDS011;1778;47.966;7.854;2022-12-16T00:51:13;22.33;;;11.82;;
3527;SDS011;1778;47.966;7.854;2022-12-16T00:52:14;20.45;;;10.73;;
3527;SDS011;1778;47.966;7.854;2022-12-16T00:53:16;16.65;;;10.73;;
3527;SDS011;1778;47.966;7.854;2022-12-16T00:54:18;17.38;;;10.35;;
3527;SDS011;1778;47.966;7.854;2022-12-16T00:55:19;23.40;;;10.85;;
3527;SDS011;1778;47.966;7.854;2022-12-16T00:56:21;14.35;;;11.32;;
3527;SDS011;1778;47.966;7.854;2022-12-16T00:57:22;15.77;;;9.95;;
3527;SDS011;1778;47.966;7.854;2022-12-16T00:58:24;12.32;;;9.50;;
3527;SDS011;1778;47.966;7.854;2022-12-16T00:59:25;22.67;;;10.82;;
3527;SDS011;1778;47.966;7.854;2022-12-16T01:00:27;15.20;;;10.25;;
3527;SDS011;1778;47.966;7.854;2022-12-16T01:01:28;16.65;;;10.63;;
3527;SDS011;1778;47.966;7.854;2022-12-16T01:02:30;17.55;;;10.05;;
3527;SDS011;1778;47.966;7.854;2022-12-16T01:03:32;20.85;;;11.40;;
3527;SDS011;1778;47.966;7.854;2022-12-16T01:04:35;20.45;;;12.52;;
3527;SDS011;1778;47.966;7.854;2022-12-16T01:05:37;10.00;;;8.80;;
3527;SDS011;1778;47.966;7.854;2022-12-16T01:06:38;18.77;;;10.25;;
3527;SDS011;1778;47.966;7.854;2022-12-16T01:07:40;23.83;;;13.77;;
3527;SDS011;1778;47.966;7.854;2022-12-16T01:08:42;13.18;;;10.00;;
3527;SDS011;1778;47.966;7.854;2022-12-16T01:09:51;22.08;;;10.27;;
3527;SDS011;1778;47.966;7.854;2022-12-16T01:10:55;17.95;;;11.15;;
3527;SDS011;1778;47.966;7.854;2022-12-16T01:11:57;22.05;;;12.23;;
3527;SDS011;1778;47.966;7.854;2022-12-16T01:12:58;29.30;;;11.85;;
3527;SDS011;1778;47.966;7.854;2022-12-16T01:14:00;18.38;;;11.57;;
3527;SDS011;1778;47.966;7.854;2022-12-16T01:15:02;11.35;;;10.25;;
3527;SDS011;1778;47.966;7.854;2022-12-16T01:16:04;22.60;;;11.20;;
3527;SDS011;1778;47.966;7.854;2022-12-16T01:17:06;13.52;;;11.38;;
3527;SDS011;1778;47.966;7.854;2022-12-16T01:18:08;15.95;;;11.65;;
3527;SDS011;1778;47.966;7.854;2022-12-16T01:19:10;27.27;;;12.38;;
3527;SDS011;1778;47.966;7.854;2022-12-16T01:20:12;23.10;;;12.07;;
3527;SDS011;1778;47.966;7.854;2022-12-16T01:21:14;26.17;;;11.85;;
3527;SDS011;1778;47.966;7.854;2022-12-16T01:22:16;24.20;;;12.93;;
3527;SDS011;1778;47.966;7.854;2022-12-16T01:23:17;21.48;;;11.50;;
3527;SDS011;1778;47.966;7.854;2022-12-16T01:24:19;16.55;;;12.63;;
3527;SDS011;1778;47.966;7.854;2022-12-16T01:25:20;17.75;;;12.15;;
3527;SDS011;1778;47.966;7.854;2022-12-16T01:26:22;19.60;;;13.35;;
3527;SDS011;1778;47.966;7.854;2022-12-16T01:27:24;19.10;;;10.90;;
3527;SDS011;1778;47.966;7.854;2022-12-16T01:28:27;24.38;;;13.82;;
3527;SDS011;1778;47.966;7.854;2022-12-16T01:29:29;15.57;;;11.45;;
3527;SDS011;1778;47.966;7.854;2022-12-16T01:30:30;16.15;;;9.70;;
3527;SDS011;1778;47.966;7.854;2022-12-16T01:31:32;22.30;;;12.85;;
3527;SDS011;1778;47.966;7.854;2022-12-16T01:32:33;20.75;;;9.95;;
3527;SDS011;1778;47.966;7.854;2022-12-16T01:33:35;15.20;;;10.13;;
3527;SDS011;1778;47.966;7.854;2022-12-16T01:34:36;15.18;;;10.23;;
3527;SDS011;1778;47.966;7.854;2022-12-16T01:35:38;21.27;;;11.38;;
3527;SDS011;1778;47.966;7.854;2022-12-16T01:36:56;25.40;;;12.32;;
3527;SDS011;1778;47.966;7.854;2022-12-16T01:37:57;31.33;;;11.03;;
3527;SDS011;1778;47.966;7.854;2022-12-16T01:38:59;21.83;;;14.15;;
3527;SDS011;1778;47.966;7.854;2022-12-16T01:40:01;25.60;;;10.88;;
3527;SDS011;1778;47.966;7.854;2022-12-16T01:41:02;22.67;;;11.93;;
3527;SDS011;1778;47.966;7.854;2022-12-16T01:42:10;26.85;;;12.05;;
3527;SDS011;1778;47.966;7.854;2022-12-16T01:43:21;22.10;;;11.73;;
3527;SDS011;1778;47.966;7.854;2022-12-16T01:44:29;21.20;;;12.17;;
3527;SDS011;1778;47.966;7.854;2022-12-16T01:45:32;13.75;;;9.90;;
3527;SDS011;1778;47.966;7.854;2022-12-16T01:46:35;19.33;;;12.63;;
3527;SDS011;1778;47.966;7.854;2022-12-16T01:47:38;25.67;;;11.93;;
3527;SDS011;1778;47.966;7.854;2022-12-16T01:51:02;28.98;;;12.70;;
3527;SDS011;1778;47.966;7.854;2022-12-16T01:52:09;20.98;;;11.20;;
3527;SDS011;1778;47.966;7.854;2022-12-16T01:53:17;25.08;;;13.32;;
3527;SDS011;1778;47.966;7.854;2022-12-16T01:55:50;14.18;;;10.95;;
3527;SDS011;1778;47.966;7.854;2022-12-16T01:56:56;14.82;;;10.30;;
3527;SDS011;1778;47.966;7.854;2022-12-16T01:58:01;16.05;;;10.38;;
3527;SDS011;1778;47.966;7.854;2022-12-16T01:59:14;18.60;;;11.57;;
3527;SDS011;1778;47.966;7.854;2022-12-16T02:00:18;17.38;;;10.80;;
3527;SDS011;1778;47.966;7.854;2022-12-16T02:01:20;30.02;;;12.98;;
3527;SDS011;1778;47.966;7.854;2022-12-16T02:02:22;17.40;;;10.52;;
3527;SDS011;1778;47.966;7.854;2022-12-16T02:03:24;24.73;;;11.10;;
3527;SDS011;1778;47.966;7.854;2022-12-16T02:04:27;17.57;;;10.20;;
3527;SDS011;1778;47.966;7.854;2022-12-16T02:05:28;19.80;;;10.50;;
3527;SDS011;1778;47.966;7.854;2022-12-16T02:06:30;16.92;;;11.20;;
3527;SDS011;1778;47.966;7.854;2022-12-16T02:07:33;9.75;;;8.48;;
3527;SDS011;1778;47.966;7.854;2022-12-16T02:08:34;20.45;;;10.75;;
3527;SDS011;1778;47.966;7.854;2022-12-16T02:09:36;24.27;;;12.60;;
3527;SDS011;1778;47.966;7.854;2022-12-16T02:13:09;20.58;;;11.52;;
3527;SDS011;1778;47.966;7.854;2022-12-16T02:17:37;24.55;;;9.90;;
3527;SDS011;1778;47.966;7.854;2022-12-16T02:20:07;18.98;;;10.18;;
3527;SDS011;1778;47.966;7.854;2022-12-16T02:21:22;21.48;;;10.82;;
3527;SDS011;1778;47.966;7.854;2022-12-16T02:25:49;17.10;;;10.25;;
3527;SDS011;1778;47.966;7.854;2022-12-16T02:27:55;16.05;;;11.07;;
3527;SDS011;1778;47.966;7.854;2022-12-16T02:30:55;17.27;;;10.10;;
3527;SDS011;1778;47.966;7.854;2022-12-16T02:32:23;19.15;;;10.63;;
3527;SDS011;1778;47.966;7.854;2022-12-16T02:34:54;24.98;;;10.48;;
3527;SDS011;1778;47.966;7.854;2022-12-16T02:39:07;13.50;;;10.02;;
3527;SDS011;1778;47.966;7.854;2022-12-16T02:42:44;18.05;;;10.77;;
3527;SDS011;1778;47.966;7.854;2022-12-16T02:46:04;16.15;;;7.82;;
3527;SDS011;1778;47.966;7.854;2022-12-16T02:47:08;13.53;;;8.23;;
3527;SDS011;1778;47.966;7.854;2022-12-16T02:48:10;19.85;;;10.07;;
3527;SDS011;1778;47.966;7.854;2022-12-16T02:50:17;19.93;;;9.67;;
3527;SDS011;1778;47.966;7.854;2022-12-16T02:51:26;15.97;;;10.17;;
3527;SDS011;1778;47.966;7.854;2022-12-16T02:52:28;20.60;;;8.13;;
3527;SDS011;1778;47.966;7.854;2022-12-16T02:53:32;17.67;;;10.35;;
3527;SDS011;1778;47.966;7.854;2022-12-16T02:54:37;14.17;;;8.43;;
3527;SDS011;1778;47.966;7.854;2022-12-16T03:00:50;14.70;;;9.50;;
3527;SDS011;1778;47.966;7.854;2022-12-16T03:04:15;18.85;;;9.50;;
3527;SDS011;1778;47.966;7.854;2022-12-16T03:05:13;15.88;;;8.52;;
3527;SDS011;1778;47.966;7.854;2022-12-16T03:06:17;18.90;;;10.02;;
3527;SDS011;1778;47.966;7.854;2022-12-16T03:07:21;15.97;;;7.73;;
3527;SDS011;1778;47.966;7.854;2022-12-16T03:08:30;26.63;;;9.55;;
3527;SDS011;1778;47.966;7.854;2022-12-16T03:09:35;13.27;;;8.73;;
3527;SDS011;1778;47.966;7.854;2022-12-16T03:10:41;23.48;;;8.75;;
3527;SDS011;1778;47.966;7.854;2022-12-16T03:11:46;14.83;;;9.73;;
3527;SDS011;1778;47.966;7.854;2022-12-16T03:12:49;17.20;;;10.93;;
3527;SDS011;1778;47.966;7.854;2022-12-16T03:13:52;25.60;;;9.33;;
3527;SDS011;1778;47.966;7.854;2022-12-16T03:14:55;12.40;;;8.35;;
3527;SDS011;1778;47.966;7.854;2022-12-16T03:15:57;19.20;;;8.68;;
3527;SDS011;1778;47.966;7.854;2022-12-16T03:17:02;19.63;;;10.33;;
3527;SDS011;1778;47.966;7.854;2022-12-16T03:18:06;12.40;;;8.33;;
3527;SDS011;1778;47.966;7.854;2022-12-16T03:19:10;14.20;;;8.82;;
3527;SDS011;1778;47.966;7.854;2022-12-16T03:20:17;19.42;;;10.68;;
3527;SDS011;1778;47.966;7.854;2022-12-16T03:21:28;17.02;;;9.73;;
3527;SDS011;1778;47.966;7.854;2022-12-16T03:22:34;12.57;;;8.90;;
3527;SDS011;1778;47.966;7.854;2022-12-16T03:24:54;9.73;;;7.63;;
3527;SDS011;1778;47.966;7.854;2022-12-16T03:25:57;17.53;;;10.80;;
3527;SDS011;1778;47.966;7.854;2022-12-16T03:27:10;16.23;;;8.90;;
3527;SDS011;1778;47.966;7.854;2022-12-16T03:31:07;20.65;;;9.57;;
3527;SDS011;1778;47.966;7.854;2022-12-16T03:32:22;17.30;;;8.30;;
3527;SDS011;1778;47.966;7.854;2022-12-16T03:33:38;18.70;;;11.57;;
3527;SDS011;1778;47.966;7.854;2022-12-16T03:35:57;20.27;;;8.70;;
3527;SDS011;1778;47.966;7.854;2022-12-16T03:37:02;20.60;;;10.13;;
3527;SDS011;1778;47.966;7.854;2022-12-16T03:38:07;10.88;;;8.90;;
3527;SDS011;1778;47.966;7.854;2022-12-16T03:39:12;16.13;;;9.60;;
3527;SDS011;1778;47.966;7.854;2022-12-16T03:40:15;23.05;;;9.43;;
3527;SDS011;1778;47.966;7.854;2022-12-16T03:41:17;29.25;;;12.60;;
3527;SDS011;1778;47.966;7.854;2022-12-16T03:42:21;11.90;;;8.65;;
3527;SDS011;1778;47.966;7.854;2022-12-16T03:43:24;10.47;;;8.30;;
3527;SDS011;1778;47.966;7.854;2022-12-16T03:44:26;14.18;;;8.80;;
3527;SDS011;1778;47.966;7.854;2022-12-16T03:45:28;24.13;;;11.07;;
3527;SDS011;1778;47.966;7.854;2022-12-16T03:46:37;15.13;;;9.75;;
3527;SDS011;1778;47.966;7.854;2022-12-16T03:47:38;10.82;;;8.43;;
3527;SDS011;1778;47.966;7.854;2022-12-16T03:48:49;19.58;;;10.50;;
3527;SDS011;1778;47.966;7.854;2022-12-16T03:49:52;13.67;;;8.20;;
3527;SDS011;1778;47.966;7.854;2022-12-16T03:50:53;12.53;;;9.10;;
3527;SDS011;1778;47.966;7.854;2022-12-16T03:51:55;12.20;;;8.90;;
3527;SDS011;1778;47.966;7.854;2022-12-16T03:52:57;18.85;;;8.50;;
3527;SDS011;1778;47.966;7.854;2022-12-16T03:53:59;19.25;;;8.75;;
3527;SDS011;1778;47.966;7.854;2022-12-16T03:55:00;13.63;;;8.40;;
3527;SDS011;1778;47.966;7.854;2022-12-16T03:56:02;20.98;;;9.00;;
3527;SDS011;1778;47.966;7.854;2022-12-16T03:57:04;18.60;;;8.97;;
3527;SDS011;1778;47.966;7.854;2022-12-16T03:58:14;14.25;;;8.10;;
3527;SDS011;1778;47.966;7.854;2022-12-16T03:59:16;24.10;;;9.80;;
3527;SDS011;1778;47.966;7.854;2022-12-16T04:00:18;18.83;;;8.90;;
3527;SDS011;1778;47.966;7.854;2022-12-16T04:01:21;18.90;;;9.82;;
3527;SDS011;1778;47.966;7.854;2022-12-16T04:02:23;15.00;;;7.97;;
3527;SDS011;1778;47.966;7.854;2022-12-16T04:03:25;15.17;;;7.90;;
3527;SDS011;1778;47.966;7.854;2022-12-16T04:04:27;13.60;;;8.45;;
3527;SDS011;1778;47.966;7.854;2022-12-16T04:05:28;9.90;;;8.82;;
3527;SDS011;1778;47.966;7.854;2022-12-16T04:06:30;21.08;;;9.80;;
3527;SDS011;1778;47.966;7.854;2022-12-16T04:07:31;20.50;;;9.38;;
3527;SDS011;1778;47.966;7.854;2022-12-16T04:08:33;19.00;;;8.73;;
3527;SDS011;1778;47.966;7.854;2022-12-16T04:09:35;11.77;;;7.63;;
3527;SDS011;1778;47.966;7.854;2022-12-16T04:10:36;12.20;;;7.80;;
3527;SDS011;1778;47.966;7.854;2022-12-16T04:11:57;13.30;;;8.20;;
3527;SDS011;1778;47.966;7.854;2022-12-16T04:13:17;14.15;;;8.35;;
3527;SDS011;1778;47.966;7.854;2022-12-16T04:14:37;15.13;;;9.43;;
3527;SDS011;1778;47.966;7.854;2022-12-16T04:15:57;21.55;;;9.10;;
3527;SDS011;1778;47.966;7.854;2022-12-16T04:17:17;23.02;;;9.70;;
3527;SDS011;1778;47.966;7.854;2022-12-16T04:18:38;19.27;;;10.48;;
3527;SDS011;1778;47.966;7.854;2022-12-16T04:20:14;14.07;;;9.90;;
3527;SDS011;1778;47.966;7.854;2022-12-16T04:21:36;13.27;;;7.13;;
3527;SDS011;1778;47.966;7.854;2022-12-16T04:22:56;14.55;;;8.40;;
3527;SDS011;1778;47.966;7.854;2022-12-16T04:24:17;13.80;;;9.10;;
3527;SDS011;1778;47.966;7.854;2022-12-16T04:25:21;12.65;;;8.18;;
3527;SDS011;1778;47.966;7.854;2022-12-16T04:26:26;11.13;;;7.90;;
3527;SDS011;1778;47.966;7.854;2022-12-16T04:27:27;14.70;;;8.63;;
3527;SDS011;1778;47.966;7.854;2022-12-16T04:28:29;13.75;;;7.38;;
3527;SDS011;1778;47.966;7.854;2022-12-16T04:29:31;10.38;;;8.25;;
3527;SDS011;1778;47.966;7.854;2022-12-16T04:30:33;10.70;;;8.05;;
3527;SDS011;1778;47.966;7.854;2022-12-16T04:31:35;12.55;;;8.02;;
3527;SDS011;1778;47.966;7.854;2022-12-16T04:32:36;13.63;;;8.88;;
3527;SDS011;1778;47.966;7.854;2022-12-16T04:33:57;17.05;;;8.45;;
3527;SDS011;1778;47.966;7.854;2022-12-16T04:35:17;11.07;;;8.77;;
3527;SDS011;1778;47.966;7.854;2022-12-16T04:36:38;14.77;;;9.37;;
3527;SDS011;1778;47.966;7.854;2022-12-16T04:37:58;17.05;;;8.88;;
3527;SDS011;1778;47.966;7.854;2022-12-16T04:39:18;8.75;;;7.35;;
3527;SDS011;1778;47.966;7.854;2022-12-16T04:40:55;11.63;;;7.80;;
3527;SDS011;1778;47.966;7.854;2022-12-16T04:42:15;19.93;;;8.53;;
3527;SDS011;1778;47.966;7.854;2022-12-16T04:43:35;22.27;;;9.73;;
3527;SDS011;1778;47.966;7.854;2022-12-16T04:44:56;17.90;;;10.85;;
3527;SDS011;1778;47.966;7.854;2022-12-16T04:46:16;15.95;;;8.75;;
3527;SDS011;1778;47.966;7.854;2022-12-16T04:47:36;16.35;;;9.38;;
3527;SDS011;1778;47.966;7.854;2022-12-16T04:48:57;14.87;;;8.70;;
3527;SDS011;1778;47.966;7.854;2022-12-16T04:50:17;11.20;;;9.57;;
3527;SDS011;1778;47.966;7.854;2022-12-16T04:51:38;9.30;;;6.30;;
3527;SDS011;1778;47.966;7.854;2022-12-16T04:52:58;13.07;;;8.33;;
3527;SDS011;1778;47.966;7.854;2022-12-16T04:54:18;15.20;;;8.50;;
3527;SDS011;1778;47.966;7.854;2022-12-16T04:55:38;14.38;;;8.52;;
3527;SDS011;1778;47.966;7.854;2022-12-16T04:57:04;14.93;;;8.60;;
3527;SDS011;1778;47.966;7.854;2022-12-16T04:58:35;9.45;;;8.32;;
3527;SDS011;1778;47.966;7.854;2022-12-16T04:59:55;27.67;;;9.88;;
3527;SDS011;1778;47.966;7.854;2022-12-16T05:01:15;14.90;;;9.73;;
3527;SDS011;1778;47.966;7.854;2022-12-16T05:02:36;13.70;;;7.77;;
3527;SDS011;1778;47.966;7.854;2022-12-16T05:03:56;15.00;;;9.00;;
3527;SDS011;1778;47.966;7.854;2022-12-16T05:05:17;7.95;;;7.15;;
3527;SDS011;1778;47.966;7.854;2022-12-16T05:06:37;12.18;;;8.02;;
3527;SDS011;1778;47.966;7.854;2022-12-16T05:07:57;16.50;;;8.00;;
3527;SDS011;1778;47.966;7.854;2022-12-16T05:09:17;14.70;;;9.27;;
3527;SDS011;1778;47.966;7.854;2022-12-16T05:10:38;10.38;;;7.80;;
3527;SDS011;1778;47.966;7.854;2022-12-16T05:11:58;11.80;;;7.72;;
3527;SDS011;1778;47.966;7.854;2022-12-16T05:13:18;13.88;;;8.82;;
3527;SDS011;1778;47.966;7.854;2022-12-16T05:14:39;18.13;;;10.75;;
3527;SDS011;1778;47.966;7.854;2022-12-16T05:15:59;15.57;;;8.73;;
3527;SDS011;1778;47.966;7.854;2022-12-16T05:17:20;15.82;;;9.52;;
3527;SDS011;1778;47.966;7.854;2022-12-16T05:18:40;17.50;;;9.65;;
3527;SDS011;1778;47.966;7.854;2022-12-16T05:20:01;17.50;;;9.63;;
3527;SDS011;1778;47.966;7.854;2022-12-16T05:21:22;10.85;;;7.32;;
3527;SDS011;1778;47.966;7.854;2022-12-16T05:22:42;20.23;;;9.57;;
3527;SDS011;1778;47.966;7.854;2022-12-16T05:24:03;14.73;;;9.25;;
3527;SDS011;1778;47.966;7.854;2022-12-16T05:25:23;17.15;;;9.18;;
3527;SDS011;1778;47.966;7.854;2022-12-16T05:26:43;12.13;;;8.30;;
3527;SDS011;1778;47.966;7.854;2022-12-16T05:28:03;13.55;;;7.80;;
3527;SDS011;1778;47.966;7.854;2022-12-16T05:29:24;18.63;;;7.90;;
3527;SDS011;1778;47.966;7.854;2022-12-16T05:30:44;16.17;;;8.15;;
3527;SDS011;1778;47.966;7.854;2022-12-16T05:32:05;16.23;;;8.48;;
3527;SDS011;1778;47.966;7.854;2022-12-16T05:33:25;13.68;;;8.10;;
3527;SDS011;1778;47.966;7.854;2022-12-16T05:34:46;13.63;;;8.23;;
3527;SDS011;1778;47.966;7.854;2022-12-16T05:36:06;19.98;;;9.35;;
3527;SDS011;1778;47.966;7.854;2022-12-16T05:37:27;12.13;;;7.93;;
3527;SDS011;1778;47.966;7.854;2022-12-16T05:38:47;15.07;;;8.63;;
3527;SDS011;1778;47.966;7.854;2022-12-16T05:40:08;11.43;;;7.78;;
3527;SDS011;1778;47.966;7.854;2022-12-16T05:41:29;14.30;;;9.07;;
3527;SDS011;1778;47.966;7.854;2022-12-16T05:42:49;15.23;;;8.32;;
3527;SDS011;1778;47.966;7.854;2022-12-16T05:44:16;16.25;;;7.88;;
3527;SDS011;1778;47.966;7.854;2022-12-16T05:45:36;12.07;;;7.05;;
3527;SDS011;1778;47.966;7.854;2022-12-16T05:46:58;9.45;;;7.47;;
3527;SDS011;1778;47.966;7.854;2022-12-16T05:48:18;12.52;;;8.93;;
3527;SDS011;1778;47.966;7.854;2022-12-16T05:49:45;12.23;;;7.68;;
3527;SDS011;1778;47.966;7.854;2022-12-16T05:51:06;14.52;;;9.07;;
3527;SDS011;1778;47.966;7.854;2022-12-16T05:52:25;22.20;;;10.30;;
3527;SDS011;1778;47.966;7.854;2022-12-16T05:53:46;12.93;;;9.07;;
3527;SDS011;1778;47.966;7.854;2022-12-16T05:55:06;15.15;;;8.40;;
3527;SDS011;1778;47.966;7.854;2022-12-16T05:56:33;9.15;;;7.43;;
3527;SDS011;1778;47.966;7.854;2022-12-16T05:57:53;15.68;;;9.88;;
3527;SDS011;1778;47.966;7.854;2022-12-16T05:59:14;8.48;;;7.57;;
3527;SDS011;1778;47.966;7.854;2022-12-16T06:00:34;14.35;;;8.38;;
3527;SDS011;1778;47.966;7.854;2022-12-16T06:01:55;13.23;;;8.85;;
3527;SDS011;1778;47.966;7.854;2022-12-16T06:03:15;12.63;;;9.07;;
3527;SDS011;1778;47.966;7.854;2022-12-16T06:04:36;16.80;;;7.70;;
3527;SDS011;1778;47.966;7.854;2022-12-16T06:05:57;14.70;;;9.10;;
3527;SDS011;1778;47.966;7.854;2022-12-16T06:07:17;16.33;;;9.68;;
3527;SDS011;1778;47.966;7.854;2022-12-16T06:08:37;14.40;;;8.68;;
3527;SDS011;1778;47.966;7.854;2022-12-16T06:09:57;9.23;;;7.70;;
3527;SDS011;1778;47.966;7.854;2022-12-16T06:11:18;14.38;;;8.20;;
3527;SDS011;1778;47.966;7.854;2022-12-16T06:12:38;21.00;;;10.65;;
3527;SDS011;1778;47.966;7.854;2022-12-16T06:13:58;16.83;;;9.13;;
3527;SDS011;1778;47.966;7.854;2022-12-16T06:15:19;16.27;;;7.90;;
3527;SDS011;1778;47.966;7.854;2022-12-16T06:16:39;16.35;;;8.98;;
3527;SDS011;1778;47.966;7.854;2022-12-16T06:17:59;17.10;;;10.10;;
3527;SDS011;1778;47.966;7.854;2022-12-16T06:19:19;13.02;;;8.63;;
3527;SDS011;1778;47.966;7.854;2022-12-16T06:20:39;10.93;;;8.07;;
3527;SDS011;1778;47.966;7.854;2022-12-16T06:21:59;16.25;;;10.27;;
3527;SDS011;1778;47.966;7.854;2022-12-16T06:23:20;10.27;;;7.07;;
3527;SDS011;1778;47.966;7.854;2022-12-16T06:24:40;14.18;;;9.07;;
3527;SDS011;1778;47.966;7.854;2022-12-16T06:26:01;13.15;;;8.30;;
3527;SDS011;1778;47.966;7.854;2022-12-16T06:27:21;12.48;;;7.80;;
3527;SDS011;1778;47.966;7.854;2022-12-16T06:28:41;9.77;;;7.57;;
3527;SDS011;1778;47.966;7.854;2022-12-16T06:30:02;8.85;;;7.55;;
3527;SDS011;1778;47.966;7.854;2022-12-16T06:31:22;16.88;;;8.70;;
3527;SDS011;1778;47.966;7.854;2022-12-16T06:32:43;12.90;;;7.47;;
3527;SDS011;1778;47.966;7.854;2022-12-16T06:34:03;13.02;;;7.78;;
3527;SDS011;1778;47.966;7.854;2022-12-16T06:35:24;29.52;;;8.45;;
3527;SDS011;1778;47.966;7.854;2022-12-16T06:36:44;11.15;;;7.50;;
3527;SDS011;1778;47.966;7.854;2022-12-16T06:38:04;12.73;;;8.95;;
3527;SDS011;1778;47.966;7.854;2022-12-16T06:39:25;11.50;;;8.10;;
3527;SDS011;1778;47.966;7.854;2022-12-16T06:40:52;22.27;;;8.43;;
3527;SDS011;1778;47.966;7.854;2022-12-16T06:42:12;18.60;;;9.45;;
3527;SDS011;1778;47.966;7.854;2022-12-16T06:43:33;16.80;;;7.82;;
3527;SDS011;1778;47.966;7.854;2022-12-16T06:44:53;13.98;;;8.77;;
3527;SDS011;1778;47.966;7.854;2022-12-16T06:46:13;12.45;;;8.27;;
3527;SDS011;1778;47.966;7.854;2022-12-16T06:47:33;12.32;;;8.00;;
3527;SDS011;1778;47.966;7.854;2022-12-16T06:48:53;14.45;;;8.93;;
3527;SDS011;1778;47.966;7.854;2022-12-16T06:50:14;12.07;;;8.77;;
3527;SDS011;1778;47.966;7.854;2022-12-16T06:51:35;14.27;;;8.70;;
3527;SDS011;1778;47.966;7.854;2022-12-16T06:52:55;15.65;;;9.63;;
3527;SDS011;1778;47.966;7.854;2022-12-16T06:54:15;9.07;;;8.18;;
3527;SDS011;1778;47.966;7.854;2022-12-16T06:55:36;15.18;;;10.23;;
3527;SDS011;1778;47.966;7.854;2022-12-16T06:56:56;15.68;;;10.90;;
3527;SDS011;1778;47.966;7.854;2022-12-16T06:58:17;13.38;;;8.55;;
3527;SDS011;1778;47.966;7.854;2022-12-16T06:59:37;12.85;;;9.18;;
3527;SDS011;1778;47.966;7.854;2022-12-16T07:00:57;12.07;;;8.77;;
3527;SDS011;1778;47.966;7.854;2022-12-16T07:02:17;9.20;;;7.80;;
3527;SDS011;1778;47.966;7.854;2022-12-16T07:03:38;11.13;;;8.45;;
3527;SDS011;1778;47.966;7.854;2022-12-16T07:04:58;12.35;;;9.30;;
3527;SDS011;1778;47.966;7.854;2022-12-16T07:06:18;10.18;;;7.35;;
3527;SDS011;1778;47.966;7.854;2022-12-16T07:07:38;9.32;;;7.43;;
3527;SDS011;1778;47.966;7.854;2022-12-16T07:09:04;19.83;;;9.25;;
3527;SDS011;1778;47.966;7.854;2022-12-16T07:10:25;13.75;;;9.10;;
3527;SDS011;1778;47.966;7.854;2022-12-16T07:11:45;10.60;;;7.47;;
3527;SDS011;1778;47.966;7.854;2022-12-16T07:13:05;12.95;;;8.32;;
3527;SDS011;1778;47.966;7.854;2022-12-16T07:14:25;16.30;;;8.68;;
3527;SDS011;1778;47.966;7.854;2022-12-16T07:15:45;9.52;;;7.78;;
3527;SDS011;1778;47.966;7.854;2022-12-16T07:17:06;13.57;;;9.15;;
3527;SDS011;1778;47.966;7.854;2022-12-16T07:18:26;13.23;;;7.32;;
3527;SDS011;1778;47.966;7.854;2022-12-16T07:19:46;12.77;;;7.50;;
3527;SDS011;1778;47.966;7.854;2022-12-16T07:21:06;13.18;;;7.68;;
3527;SDS011;1778;47.966;7.854;2022-12-16T07:22:26;12.27;;;7.35;;
3527;SDS011;1778;47.966;7.854;2022-12-16T07:23:46;15.13;;;8.18;;
3527;SDS011;1778;47.966;7.854;2022-12-16T07:25:07;11.30;;;7.03;;
3527;SDS011;1778;47.966;7.854;2022-12-16T07:26:27;8.23;;;7.40;;
3527;SDS011;1778;47.966;7.854;2022-12-16T07:27:47;7.65;;;7.00;;
3527;SDS011;1778;47.966;7.854;2022-12-16T07:29:15;7.40;;;5.88;;
3527;SDS011;1778;47.966;7.854;2022-12-16T07:30:35;15.45;;;7.70;;
3527;SDS011;1778;47.966;7.854;2022-12-16T07:31:55;12.20;;;8.32;;
3527;SDS011;1778;47.966;7.854;2022-12-16T07:33:15;16.90;;;9.73;;
3527;SDS011;1778;47.966;7.854;2022-12-16T07:34:36;10.02;;;7.63;;
3527;SDS011;1778;47.966;7.854;2022-12-16T07:35:57;12.30;;;7.63;;
3527;SDS011;1778;47.966;7.854;2022-12-16T07:37:18;9.32;;;8.32;;
3527;SDS011;1778;47.966;7.854;2022-12-16T07:38:38;13.05;;;7.95;;
3527;SDS011;1778;47.966;7.854;2022-12-16T07:39:59;15.45;;;9.25;;
3527;SDS011;1778;47.966;7.854;2022-12-16T07:41:19;10.02;;;6.97;;
3527;SDS011;1778;47.966;7.854;2022-12-16T07:42:40;10.30;;;7.80;;
3527;SDS011;1778;47.966;7.854;2022-12-16T07:44:00;9.05;;;7.72;;
3527;SDS011;1778;47.966;7.854;2022-12-16T07:45:21;11.63;;;7.63;;
3527;SDS011;1778;47.966;7.854;2022-12-16T07:46:45;10.73;;;8.23;;
3527;SDS011;1778;47.966;7.854;2022-12-16T07:48:06;13.02;;;7.65;;
3527;SDS011;1778;47.966;7.854;2022-12-16T07:49:26;12.20;;;8.35;;
3527;SDS011;1778;47.966;7.854;2022-12-16T07:50:47;12.20;;;7.70;;
3527;SDS011;1778;47.966;7.854;2022-12-16T07:52:08;10.00;;;8.18;;
3527;SDS011;1778;47.966;7.854;2022-12-16T07:53:28;7.68;;;7.00;;
3527;SDS011;1778;47.966;7.854;2022-12-16T07:54:49;19.55;;;6.95;;